Anaktuvuk Pass, Alaska
Current Conditions -  °F | °C
As of 3:36 AM on Thursday 23 Oct 2014 (Local Time) from PAKP Reporting Station
Overcast Overcast  
Wind Chill: 12°   Ceiling: 3800
Heat Index: 12°   Visibility: 10mi
Dew Point:   Wind: 0mph
Humidity: 79%   Direction: NA
Pressure: 29.72"   Gusts: NA
Location:  68.14°N, 151.74°W
Report Text: PAKP 231136Z AUTO 00000KT 10SM BKN038 OVC080 M11/M14 A2972 RMK AO1
Loading
Personal Weather Stations






























Interactive Weather Map
Tropical Storm Tracking
New forecast layout! Learn more

10-Day Weather Forecast

Advertisements
Track Severe Weather on mobile